Jack Guidry — WDF2422 — position and weather

sailwx.info

Track history (hours):
 
Tides and Currents Weather Stations Pressure Air Temp Water Temp Dewpoint Dewpoint Depression Visibility Wind Speed Wind Dir Waves Ship Positions

Jack Guidry

Owner: Enterprise Marine Services, LLC, San Antonio, TX. More information available from US FCC via Universal Licensing System and Coast Guard Vessel Documentation Center.

Last reported at 2014-Oct-31 13:17 UTC. Time now 2014-Nov-01 04:55 UTC.
Position N 29°47' W 095°05'.

Length 22 m; draft 2.5 m.

Type: Other ship. MMSI: 367003430.

Date/timePositionNaut miles runAvg speedWind from/ knotsBaromVisibWave heightAir tempDewpointWater temp
2014-Oct-31 13:17N 29°47' W 095°05'0 0.1
2014-Oct-31 12:33N 29°47' W 095°05'0 0.0
2014-Oct-31 11:33N 29°47' W 095°05'0 0.0
2014-Oct-31 10:33N 29°47' W 095°05'0 0.0
2014-Oct-31 09:33N 29°47' W 095°05'0 0.0
2014-Oct-31 08:33N 29°47' W 095°05'0 0.0
2014-Oct-31 07:33N 29°47' W 095°05'0 0.0
2014-Oct-31 06:33N 29°47' W 095°05'0 0.0
2014-Oct-31 05:29N 29°47' W 095°05'0 0.0
2014-Oct-31 04:32N 29°47' W 095°05'0 0.0
2014-Oct-31 03:32N 29°47' W 095°05'0 0.0
2014-Oct-31 02:33N 29°47' W 095°05'0 0.0
2014-Oct-31 01:33N 29°47' W 095°05'0 0.0
2014-Oct-31 00:33N 29°47' W 095°05'0 0.0
2014-Oct-30 23:33N 29°47' W 095°05'0 0.0
2014-Oct-30 22:33N 29°47' W 095°05'0 0.0
2014-Oct-30 21:33N 29°47' W 095°05'1 0.8
2014-Oct-30 20:15N 29°46' W 095°05'0 0.1
2014-Oct-30 19:32N 29°46' W 095°05'0 0.0
2014-Oct-30 18:31N 29°46' W 095°05'3 2.7
2014-Oct-30 17:33N 29°44' W 095°03'5 4.6
2014-Oct-30 16:33N 29°41' W 094°59'5 5.5
2014-Oct-30 15:34N 29°36' W 094°57'5 5.2
2014-Oct-30 14:33N 29°32' W 094°53'  
2014-Oct-24 21:31N 29°31' W 094°53'7 6.2
2014-Oct-24 20:27N 29°36' W 094°57'4 4.5
2014-Oct-24 19:33N 29°37' W 095°01'0 0.0
2014-Oct-24 18:33N 29°37' W 095°01'0 0.0
2014-Oct-24 17:34N 29°37' W 095°01'0 0.0
2014-Oct-24 16:33N 29°37' W 095°01'0 0.0
2014-Oct-24 15:33N 29°37' W 095°01'0 0.0
2014-Oct-24 14:34N 29°37' W 095°01'0 0.0
2014-Oct-24 13:33N 29°37' W 095°01'0 0.0
2014-Oct-24 12:33N 29°37' W 095°01'0 0.0
2014-Oct-24 11:34N 29°37' W 095°01'0 0.0
2014-Oct-24 10:33N 29°37' W 095°01'0 0.0
2014-Oct-24 09:34N 29°37' W 095°01'0 0.0
2014-Oct-24 08:33N 29°37' W 095°01'0 0.0
2014-Oct-24 07:33N 29°37' W 095°01'0 0.0
2014-Oct-24 06:34N 29°37' W 095°01'0 0.0
2014-Oct-24 05:33N 29°37' W 095°01'0 0.0
2014-Oct-24 04:33N 29°37' W 095°01'0 0.0
2014-Oct-24 03:33N 29°37' W 095°01'0 0.0
2014-Oct-24 02:34N 29°37' W 095°01'0 0.1
2014-Oct-24 01:33N 29°37' W 095°01'3 3.4
2014-Oct-24 00:34N 29°37' W 094°58'5 4.6
2014-Oct-23 23:34N 29°42' W 094°60'5 4.5
2014-Oct-23 22:31N 29°45' W 095°04'3 2.2
2014-Oct-23 21:17N 29°47' W 095°05'0 0.0
2014-Oct-23 16:28N 29°47' W 095°05'0 0.0
2014-Oct-23 15:26N 29°47' W 095°05'0 0.0
2014-Oct-23 14:31N 29°47' W 095°05'0 0.0
2014-Oct-23 13:29N 29°47' W 095°05'0 0.0
2014-Oct-23 12:29N 29°47' W 095°05'0 0.0
2014-Oct-23 11:32N 29°47' W 095°05'0 0.0
2014-Oct-23 10:28N 29°47' W 095°05'0 0.0
2014-Oct-23 09:31N 29°47' W 095°05'0 0.0
2014-Oct-23 08:08N 29°47' W 095°05'0 0.0
2014-Oct-22 23:32N 29°47' W 095°05'0 0.0
2014-Oct-22 22:33N 29°47' W 095°05'0 0.0
2014-Oct-22 21:30N 29°47' W 095°05'1 0.6
2014-Oct-22 20:32N 29°47' W 095°04'0 0.4
2014-Oct-22 19:23N 29°47' W 095°05'3 4.1
2014-Oct-22 18:33N 29°44' W 095°02'4 4.2
2014-Oct-22 17:34N 29°41' W 094°59'5 4.7
2014-Oct-22 16:33N 29°36' W 094°57'5 5.2
2014-Oct-22 15:34N 29°32' W 094°54'5 5.0
2014-Oct-22 14:28N 29°27' W 094°51'  
Track history (hours):
 
Tides and Currents Weather Stations Pressure Air Temp Water Temp Dewpoint Dewpoint Depression Visibility Wind Speed Wind Dir Waves Ship Positions

Jack Guidry

Owner: Enterprise Marine Services, LLC, San Antonio, TX. More information available from US FCC via Universal Licensing System and Coast Guard Vessel Documentation Center.

Last reported at 2014-Oct-31 13:17 UTC. Time now 2014-Nov-01 04:55 UTC.
Position N 29°47' W 095°05'.

Length 22 m; draft 2.5 m.

Type: Other ship. MMSI: 367003430.

Date/timePositionNaut miles runAvg speedWind from/ knotsBaromVisibWave heightAir tempDewpointWater temp
2014-Oct-31 13:17N 29°47' W 095°05'0 0.1
2014-Oct-31 12:33N 29°47' W 095°05'0 0.0
2014-Oct-31 11:33N 29°47' W 095°05'0 0.0
2014-Oct-31 10:33N 29°47' W 095°05'0 0.0
2014-Oct-31 09:33N 29°47' W 095°05'0 0.0
2014-Oct-31 08:33N 29°47' W 095°05'0 0.0
2014-Oct-31 07:33N 29°47' W 095°05'0 0.0
2014-Oct-31 06:33N 29°47' W 095°05'0 0.0
2014-Oct-31 05:29N 29°47' W 095°05'0 0.0
2014-Oct-31 04:32N 29°47' W 095°05'0 0.0
2014-Oct-31 03:32N 29°47' W 095°05'0 0.0
2014-Oct-31 02:33N 29°47' W 095°05'0 0.0
2014-Oct-31 01:33N 29°47' W 095°05'0 0.0
2014-Oct-31 00:33N 29°47' W 095°05'0 0.0
2014-Oct-30 23:33N 29°47' W 095°05'0 0.0
2014-Oct-30 22:33N 29°47' W 095°05'0 0.0
2014-Oct-30 21:33N 29°47' W 095°05'1 0.8
2014-Oct-30 20:15N 29°46' W 095°05'0 0.1
2014-Oct-30 19:32N 29°46' W 095°05'0 0.0
2014-Oct-30 18:31N 29°46' W 095°05'3 2.7
2014-Oct-30 17:33N 29°44' W 095°03'5 4.6
2014-Oct-30 16:33N 29°41' W 094°59'5 5.5
2014-Oct-30 15:34N 29°36' W 094°57'5 5.2
2014-Oct-30 14:33N 29°32' W 094°53'  
2014-Oct-24 21:31N 29°31' W 094°53'7 6.2
2014-Oct-24 20:27N 29°36' W 094°57'4 4.5
2014-Oct-24 19:33N 29°37' W 095°01'0 0.0
2014-Oct-24 18:33N 29°37' W 095°01'0 0.0
2014-Oct-24 17:34N 29°37' W 095°01'0 0.0
2014-Oct-24 16:33N 29°37' W 095°01'0 0.0
2014-Oct-24 15:33N 29°37' W 095°01'0 0.0
2014-Oct-24 14:34N 29°37' W 095°01'0 0.0
2014-Oct-24 13:33N 29°37' W 095°01'0 0.0
2014-Oct-24 12:33N 29°37' W 095°01'0 0.0
2014-Oct-24 11:34N 29°37' W 095°01'0 0.0
2014-Oct-24 10:33N 29°37' W 095°01'0 0.0
2014-Oct-24 09:34N 29°37' W 095°01'0 0.0
2014-Oct-24 08:33N 29°37' W 095°01'0 0.0
2014-Oct-24 07:33N 29°37' W 095°01'0 0.0
2014-Oct-24 06:34N 29°37' W 095°01'0 0.0
2014-Oct-24 05:33N 29°37' W 095°01'0 0.0
2014-Oct-24 04:33N 29°37' W 095°01'0 0.0
2014-Oct-24 03:33N 29°37' W 095°01'0 0.0
2014-Oct-24 02:34N 29°37' W 095°01'0 0.1
2014-Oct-24 01:33N 29°37' W 095°01'3 3.4
2014-Oct-24 00:34N 29°37' W 094°58'5 4.6
2014-Oct-23 23:34N 29°42' W 094°60'5 4.5
2014-Oct-23 22:31N 29°45' W 095°04'3 2.2
2014-Oct-23 21:17N 29°47' W 095°05'0 0.0
2014-Oct-23 16:28N 29°47' W 095°05'0 0.0
2014-Oct-23 15:26N 29°47' W 095°05'0 0.0
2014-Oct-23 14:31N 29°47' W 095°05'0 0.0
2014-Oct-23 13:29N 29°47' W 095°05'0 0.0
2014-Oct-23 12:29N 29°47' W 095°05'0 0.0
2014-Oct-23 11:32N 29°47' W 095°05'0 0.0
2014-Oct-23 10:28N 29°47' W 095°05'0 0.0
2014-Oct-23 09:31N 29°47' W 095°05'0 0.0
2014-Oct-23 08:08N 29°47' W 095°05'0 0.0
2014-Oct-22 23:32N 29°47' W 095°05'0 0.0
2014-Oct-22 22:33N 29°47' W 095°05'0 0.0
2014-Oct-22 21:30N 29°47' W 095°05'1 0.6
2014-Oct-22 20:32N 29°47' W 095°04'0 0.4
2014-Oct-22 19:23N 29°47' W 095°05'3 4.1
2014-Oct-22 18:33N 29°44' W 095°02'4 4.2
2014-Oct-22 17:34N 29°41' W 094°59'5 4.7
2014-Oct-22 16:33N 29°36' W 094°57'5 5.2
2014-Oct-22 15:34N 29°32' W 094°54'5 5.0
2014-Oct-22 14:28N 29°27' W 094°51'  

Dump ship's entire track history